sensor_id;sensor_type;location;lat;lon;timestamp;P1;durP1;ratioP1;P2;durP2;ratioP2
19482;SDS011;9882;51.166;6.992;2022-12-18T00:02:01;20.02;;;7.22;;
19482;SDS011;9882;51.166;6.992;2022-12-18T00:04:30;18.02;;;7.60;;
19482;SDS011;9882;51.166;6.992;2022-12-18T00:06:59;19.98;;;7.65;;
19482;SDS011;9882;51.166;6.992;2022-12-18T00:09:28;17.20;;;6.80;;
19482;SDS011;9882;51.166;6.992;2022-12-18T00:11:56;20.38;;;7.05;;
19482;SDS011;9882;51.166;6.992;2022-12-18T00:14:25;13.60;;;6.93;;
19482;SDS011;9882;51.166;6.992;2022-12-18T00:16:53;23.38;;;7.47;;
19482;SDS011;9882;51.166;6.992;2022-12-18T00:19:23;22.60;;;7.40;;
19482;SDS011;9882;51.166;6.992;2022-12-18T00:21:52;18.85;;;6.88;;
19482;SDS011;9882;51.166;6.992;2022-12-18T00:24:21;16.60;;;6.53;;
19482;SDS011;9882;51.166;6.992;2022-12-18T00:26:49;21.88;;;7.65;;
19482;SDS011;9882;51.166;6.992;2022-12-18T00:29:18;20.15;;;7.45;;
19482;SDS011;9882;51.166;6.992;2022-12-18T00:31:46;15.05;;;6.70;;
19482;SDS011;9882;51.166;6.992;2022-12-18T00:34:15;19.80;;;6.60;;
19482;SDS011;9882;51.166;6.992;2022-12-18T00:36:46;16.80;;;6.38;;
19482;SDS011;9882;51.166;6.992;2022-12-18T00:39:15;17.67;;;6.70;;
19482;SDS011;9882;51.166;6.992;2022-12-18T00:41:44;16.17;;;7.93;;
19482;SDS011;9882;51.166;6.992;2022-12-18T00:44:30;21.15;;;6.63;;
19482;SDS011;9882;51.166;6.992;2022-12-18T00:46:59;16.27;;;6.45;;
19482;SDS011;9882;51.166;6.992;2022-12-18T00:49:28;16.38;;;6.55;;
19482;SDS011;9882;51.166;6.992;2022-12-18T00:51:57;21.65;;;6.97;;
19482;SDS011;9882;51.166;6.992;2022-12-18T00:54:26;18.45;;;6.85;;
19482;SDS011;9882;51.166;6.992;2022-12-18T00:56:57;17.50;;;6.22;;
19482;SDS011;9882;51.166;6.992;2022-12-18T00:59:26;16.73;;;6.50;;
19482;SDS011;9882;51.166;6.992;2022-12-18T01:01:56;17.77;;;7.03;;
19482;SDS011;9882;51.166;6.992;2022-12-18T01:04:25;18.85;;;7.57;;
19482;SDS011;9882;51.166;6.992;2022-12-18T01:06:53;19.92;;;8.10;;
19482;SDS011;9882;51.166;6.992;2022-12-18T01:09:23;18.95;;;7.22;;
19482;SDS011;9882;51.166;6.992;2022-12-18T01:11:52;15.23;;;6.63;;
19482;SDS011;9882;51.166;6.992;2022-12-18T01:14:20;17.45;;;7.10;;
19482;SDS011;9882;51.166;6.992;2022-12-18T01:16:49;15.00;;;6.80;;
19482;SDS011;9882;51.166;6.992;2022-12-18T01:19:17;18.27;;;7.45;;
19482;SDS011;9882;51.166;6.992;2022-12-18T01:21:46;20.98;;;7.25;;
19482;SDS011;9882;51.166;6.992;2022-12-18T01:24:14;15.52;;;6.90;;
19482;SDS011;9882;51.166;6.992;2022-12-18T01:26:45;18.08;;;7.22;;
19482;SDS011;9882;51.166;6.992;2022-12-18T01:29:13;18.02;;;6.65;;
19482;SDS011;9882;51.166;6.992;2022-12-18T01:31:42;18.98;;;6.93;;
19482;SDS011;9882;51.166;6.992;2022-12-18T01:34:10;19.73;;;7.57;;
19482;SDS011;9882;51.166;6.992;2022-12-18T01:36:41;17.92;;;7.75;;
19482;SDS011;9882;51.166;6.992;2022-12-18T01:39:10;21.38;;;7.88;;
19482;SDS011;9882;51.166;6.992;2022-12-18T01:41:41;21.42;;;6.65;;
19482;SDS011;9882;51.166;6.992;2022-12-18T01:47:34;17.48;;;6.85;;
19482;SDS011;9882;51.166;6.992;2022-12-18T01:50:08;15.65;;;6.55;;
19482;SDS011;9882;51.166;6.992;2022-12-18T01:52:39;13.20;;;6.15;;
19482;SDS011;9882;51.166;6.992;2022-12-18T01:55:09;21.83;;;8.07;;
19482;SDS011;9882;51.166;6.992;2022-12-18T01:57:38;15.48;;;6.72;;
19482;SDS011;9882;51.166;6.992;2022-12-18T02:00:10;24.95;;;6.85;;
19482;SDS011;9882;51.166;6.992;2022-12-18T02:02:42;17.45;;;6.85;;
19482;SDS011;9882;51.166;6.992;2022-12-18T02:05:13;20.83;;;7.53;;
19482;SDS011;9882;51.166;6.992;2022-12-18T02:07:48;15.23;;;6.43;;
19482;SDS011;9882;51.166;6.992;2022-12-18T02:10:34;17.98;;;6.90;;
19482;SDS011;9882;51.166;6.992;2022-12-18T02:13:11;21.52;;;7.38;;
19482;SDS011;9882;51.166;6.992;2022-12-18T02:15:46;14.18;;;6.32;;
19482;SDS011;9882;51.166;6.992;2022-12-18T02:18:23;13.98;;;6.03;;
19482;SDS011;9882;51.166;6.992;2022-12-18T02:20:55;15.52;;;6.20;;
19482;SDS011;9882;51.166;6.992;2022-12-18T02:26:36;19.38;;;5.70;;
19482;SDS011;9882;51.166;6.992;2022-12-18T02:29:11;16.48;;;6.93;;
19482;SDS011;9882;51.166;6.992;2022-12-18T02:31:45;13.80;;;5.95;;
19482;SDS011;9882;51.166;6.992;2022-12-18T02:34:19;12.82;;;6.18;;
19482;SDS011;9882;51.166;6.992;2022-12-18T02:36:51;16.33;;;6.45;;
19482;SDS011;9882;51.166;6.992;2022-12-18T02:39:21;27.33;;;7.13;;
19482;SDS011;9882;51.166;6.992;2022-12-18T02:41:59;15.82;;;6.10;;
19482;SDS011;9882;51.166;6.992;2022-12-18T02:44:34;22.00;;;7.05;;
19482;SDS011;9882;51.166;6.992;2022-12-18T02:47:10;17.10;;;6.55;;
19482;SDS011;9882;51.166;6.992;2022-12-18T02:49:42;18.13;;;6.57;;
19482;SDS011;9882;51.166;6.992;2022-12-18T02:52:18;14.10;;;6.13;;
19482;SDS011;9882;51.166;6.992;2022-12-18T02:54:58;20.42;;;7.13;;
19482;SDS011;9882;51.166;6.992;2022-12-18T02:57:36;18.75;;;6.95;;
19482;SDS011;9882;51.166;6.992;2022-12-18T03:00:12;17.45;;;6.07;;
19482;SDS011;9882;51.166;6.992;2022-12-18T03:02:44;17.40;;;6.25;;
19482;SDS011;9882;51.166;6.992;2022-12-18T03:05:19;14.25;;;6.78;;
19482;SDS011;9882;51.166;6.992;2022-12-18T03:07:55;15.82;;;6.43;;
19482;SDS011;9882;51.166;6.992;2022-12-18T03:10:29;14.55;;;5.85;;
19482;SDS011;9882;51.166;6.992;2022-12-18T03:13:04;14.43;;;5.70;;
19482;SDS011;9882;51.166;6.992;2022-12-18T03:15:35;18.27;;;7.03;;
19482;SDS011;9882;51.166;6.992;2022-12-18T03:18:10;20.70;;;6.57;;
19482;SDS011;9882;51.166;6.992;2022-12-18T03:20:44;13.95;;;6.45;;
19482;SDS011;9882;51.166;6.992;2022-12-18T03:23:20;18.98;;;6.20;;
19482;SDS011;9882;51.166;6.992;2022-12-18T03:25:53;14.93;;;5.82;;
19482;SDS011;9882;51.166;6.992;2022-12-18T03:28:28;13.07;;;5.53;;
19482;SDS011;9882;51.166;6.992;2022-12-18T03:31:03;14.32;;;5.50;;
19482;SDS011;9882;51.166;6.992;2022-12-18T03:33:34;14.40;;;6.05;;
19482;SDS011;9882;51.166;6.992;2022-12-18T03:36:07;16.45;;;6.07;;
19482;SDS011;9882;51.166;6.992;2022-12-18T03:38:37;16.67;;;6.47;;
19482;SDS011;9882;51.166;6.992;2022-12-18T03:41:10;13.20;;;5.32;;
19482;SDS011;9882;51.166;6.992;2022-12-18T03:44:19;14.30;;;5.85;;
19482;SDS011;9882;51.166;6.992;2022-12-18T03:46:55;16.08;;;5.80;;
19482;SDS011;9882;51.166;6.992;2022-12-18T03:49:34;10.95;;;5.05;;
19482;SDS011;9882;51.166;6.992;2022-12-18T03:52:09;11.77;;;5.75;;
19482;SDS011;9882;51.166;6.992;2022-12-18T03:54:42;16.05;;;6.22;;
19482;SDS011;9882;51.166;6.992;2022-12-18T03:57:16;14.38;;;5.85;;
19482;SDS011;9882;51.166;6.992;2022-12-18T03:59:54;14.43;;;5.63;;
19482;SDS011;9882;51.166;6.992;2022-12-18T04:02:28;15.00;;;6.07;;
19482;SDS011;9882;51.166;6.992;2022-12-18T04:05:01;13.95;;;5.93;;
19482;SDS011;9882;51.166;6.992;2022-12-18T04:07:38;13.93;;;5.70;;
19482;SDS011;9882;51.166;6.992;2022-12-18T04:10:11;16.73;;;6.05;;
19482;SDS011;9882;51.166;6.992;2022-12-18T04:12:42;14.45;;;5.90;;
19482;SDS011;9882;51.166;6.992;2022-12-18T04:15:14;14.77;;;6.20;;
19482;SDS011;9882;51.166;6.992;2022-12-18T04:17:46;16.27;;;5.70;;
19482;SDS011;9882;51.166;6.992;2022-12-18T04:20:20;12.07;;;5.43;;
19482;SDS011;9882;51.166;6.992;2022-12-18T04:22:48;8.52;;;5.25;;
19482;SDS011;9882;51.166;6.992;2022-12-18T04:25:19;13.18;;;5.47;;
19482;SDS011;9882;51.166;6.992;2022-12-18T04:28:04;15.60;;;6.00;;
19482;SDS011;9882;51.166;6.992;2022-12-18T04:30:36;17.40;;;6.00;;
19482;SDS011;9882;51.166;6.992;2022-12-18T04:33:08;13.98;;;5.63;;
19482;SDS011;9882;51.166;6.992;2022-12-18T04:35:38;16.30;;;5.72;;
19482;SDS011;9882;51.166;6.992;2022-12-18T04:38:07;14.98;;;5.40;;
19482;SDS011;9882;51.166;6.992;2022-12-18T04:40:36;13.07;;;5.90;;
19482;SDS011;9882;51.166;6.992;2022-12-18T04:43:11;13.02;;;5.30;;
19482;SDS011;9882;51.166;6.992;2022-12-18T04:45:41;15.27;;;5.60;;
19482;SDS011;9882;51.166;6.992;2022-12-18T04:48:10;11.05;;;5.68;;
19482;SDS011;9882;51.166;6.992;2022-12-18T04:50:38;14.60;;;5.22;;
19482;SDS011;9882;51.166;6.992;2022-12-18T04:53:07;12.40;;;5.45;;
19482;SDS011;9882;51.166;6.992;2022-12-18T04:55:35;13.18;;;5.45;;
19482;SDS011;9882;51.166;6.992;2022-12-18T04:58:04;11.70;;;5.35;;
19482;SDS011;9882;51.166;6.992;2022-12-18T05:00:32;12.95;;;5.55;;
19482;SDS011;9882;51.166;6.992;2022-12-18T05:03:02;11.70;;;5.68;;
19482;SDS011;9882;51.166;6.992;2022-12-18T05:05:31;15.27;;;4.97;;
19482;SDS011;9882;51.166;6.992;2022-12-18T05:07:59;11.35;;;5.18;;
19482;SDS011;9882;51.166;6.992;2022-12-18T05:10:28;13.48;;;4.72;;
19482;SDS011;9882;51.166;6.992;2022-12-18T05:13:00;10.60;;;5.05;;
19482;SDS011;9882;51.166;6.992;2022-12-18T05:15:29;17.40;;;6.10;;
19482;SDS011;9882;51.166;6.992;2022-12-18T05:17:59;14.25;;;5.15;;
19482;SDS011;9882;51.166;6.992;2022-12-18T05:20:29;14.45;;;5.45;;
19482;SDS011;9882;51.166;6.992;2022-12-18T05:22:58;13.98;;;5.28;;
19482;SDS011;9882;51.166;6.992;2022-12-18T05:25:27;9.30;;;4.88;;
19482;SDS011;9882;51.166;6.992;2022-12-18T05:27:55;12.98;;;5.05;;
19482;SDS011;9882;51.166;6.992;2022-12-18T05:30:24;11.65;;;5.45;;
19482;SDS011;9882;51.166;6.992;2022-12-18T05:32:52;13.93;;;4.93;;
19482;SDS011;9882;51.166;6.992;2022-12-18T05:35:21;14.85;;;5.38;;
19482;SDS011;9882;51.166;6.992;2022-12-18T05:37:51;12.45;;;5.03;;
19482;SDS011;9882;51.166;6.992;2022-12-18T05:40:19;11.52;;;5.07;;
19482;SDS011;9882;51.166;6.992;2022-12-18T05:42:48;15.90;;;5.13;;
19482;SDS011;9882;51.166;6.992;2022-12-18T05:45:16;15.50;;;5.03;;
19482;SDS011;9882;51.166;6.992;2022-12-18T05:47:45;14.63;;;5.20;;
19482;SDS011;9882;51.166;6.992;2022-12-18T05:50:13;9.82;;;4.63;;
19482;SDS011;9882;51.166;6.992;2022-12-18T05:52:42;11.10;;;4.72;;
19482;SDS011;9882;51.166;6.992;2022-12-18T05:55:12;16.30;;;6.18;;
19482;SDS011;9882;51.166;6.992;2022-12-18T05:57:40;10.98;;;5.00;;
19482;SDS011;9882;51.166;6.992;2022-12-18T06:00:09;12.15;;;5.40;;
19482;SDS011;9882;51.166;6.992;2022-12-18T06:02:39;12.45;;;5.35;;
19482;SDS011;9882;51.166;6.992;2022-12-18T06:05:07;16.23;;;5.57;;
19482;SDS011;9882;51.166;6.992;2022-12-18T06:07:36;15.18;;;5.70;;
19482;SDS011;9882;51.166;6.992;2022-12-18T06:10:04;14.40;;;4.93;;
19482;SDS011;9882;51.166;6.992;2022-12-18T06:12:35;10.02;;;5.00;;
19482;SDS011;9882;51.166;6.992;2022-12-18T06:15:04;17.08;;;5.93;;
19482;SDS011;9882;51.166;6.992;2022-12-18T06:17:33;15.52;;;5.35;;
19482;SDS011;9882;51.166;6.992;2022-12-18T06:20:02;10.73;;;5.22;;
19482;SDS011;9882;51.166;6.992;2022-12-18T06:22:31;13.38;;;5.50;;
19482;SDS011;9882;51.166;6.992;2022-12-18T06:25:00;20.75;;;6.88;;
19482;SDS011;9882;51.166;6.992;2022-12-18T06:27:28;16.05;;;5.75;;
19482;SDS011;9882;51.166;6.992;2022-12-18T06:29:58;15.77;;;5.60;;
19482;SDS011;9882;51.166;6.992;2022-12-18T06:32:27;18.23;;;6.20;;
19482;SDS011;9882;51.166;6.992;2022-12-18T06:34:55;14.27;;;5.13;;
19482;SDS011;9882;51.166;6.992;2022-12-18T06:37:24;15.18;;;6.70;;
19482;SDS011;9882;51.166;6.992;2022-12-18T06:39:52;14.30;;;6.32;;
19482;SDS011;9882;51.166;6.992;2022-12-18T06:42:22;13.57;;;5.82;;
19482;SDS011;9882;51.166;6.992;2022-12-18T06:44:51;23.50;;;7.60;;
19482;SDS011;9882;51.166;6.992;2022-12-18T06:47:21;19.42;;;6.78;;
19482;SDS011;9882;51.166;6.992;2022-12-18T06:49:50;15.13;;;6.40;;
19482;SDS011;9882;51.166;6.992;2022-12-18T06:52:18;12.15;;;5.57;;
19482;SDS011;9882;51.166;6.992;2022-12-18T06:54:47;15.75;;;5.75;;
19482;SDS011;9882;51.166;6.992;2022-12-18T06:57:15;14.32;;;5.20;;
19482;SDS011;9882;51.166;6.992;2022-12-18T06:59:44;14.15;;;5.68;;
19482;SDS011;9882;51.166;6.992;2022-12-18T07:02:12;16.73;;;6.43;;
19482;SDS011;9882;51.166;6.992;2022-12-18T07:04:42;11.13;;;5.57;;
19482;SDS011;9882;51.166;6.992;2022-12-18T07:07:11;17.60;;;6.43;;
19482;SDS011;9882;51.166;6.992;2022-12-18T07:09:39;12.50;;;5.30;;
19482;SDS011;9882;51.166;6.992;2022-12-18T07:12:07;14.52;;;5.72;;
19482;SDS011;9882;51.166;6.992;2022-12-18T07:14:36;17.50;;;6.38;;
19482;SDS011;9882;51.166;6.992;2022-12-18T07:17:04;14.18;;;6.38;;
19482;SDS011;9882;51.166;6.992;2022-12-18T07:19:33;20.77;;;6.95;;
19482;SDS011;9882;51.166;6.992;2022-12-18T07:22:03;15.85;;;6.18;;
19482;SDS011;9882;51.166;6.992;2022-12-18T07:24:32;19.15;;;6.68;;
19482;SDS011;9882;51.166;6.992;2022-12-18T07:27:01;18.92;;;6.97;;
19482;SDS011;9882;51.166;6.992;2022-12-18T07:29:29;18.08;;;6.60;;
19482;SDS011;9882;51.166;6.992;2022-12-18T07:31:58;14.73;;;6.25;;
19482;SDS011;9882;51.166;6.992;2022-12-18T07:34:26;19.50;;;6.30;;
19482;SDS011;9882;51.166;6.992;2022-12-18T07:36:55;14.73;;;6.20;;
19482;SDS011;9882;51.166;6.992;2022-12-18T07:39:25;13.70;;;6.43;;
19482;SDS011;9882;51.166;6.992;2022-12-18T07:41:53;12.35;;;5.47;;
19482;SDS011;9882;51.166;6.992;2022-12-18T07:44:39;13.30;;;5.85;;
19482;SDS011;9882;51.166;6.992;2022-12-18T07:47:07;21.77;;;6.82;;
19482;SDS011;9882;51.166;6.992;2022-12-18T07:49:37;13.75;;;5.68;;
19482;SDS011;9882;51.166;6.992;2022-12-18T07:52:06;15.82;;;6.35;;
19482;SDS011;9882;51.166;6.992;2022-12-18T07:54:37;16.00;;;6.57;;
19482;SDS011;9882;51.166;6.992;2022-12-18T07:57:07;14.02;;;6.00;;
19482;SDS011;9882;51.166;6.992;2022-12-18T07:59:47;13.35;;;5.90;;
19482;SDS011;9882;51.166;6.992;2022-12-18T08:02:16;17.33;;;6.57;;
19482;SDS011;9882;51.166;6.992;2022-12-18T08:04:44;16.77;;;6.43;;
19482;SDS011;9882;51.166;6.992;2022-12-18T08:07:13;17.77;;;6.75;;
19482;SDS011;9882;51.166;6.992;2022-12-18T08:09:43;17.45;;;6.80;;
19482;SDS011;9882;51.166;6.992;2022-12-18T08:12:11;17.50;;;6.85;;
19482;SDS011;9882;51.166;6.992;2022-12-18T08:14:40;15.38;;;6.68;;
19482;SDS011;9882;51.166;6.992;2022-12-18T08:17:08;17.55;;;6.63;;
19482;SDS011;9882;51.166;6.992;2022-12-18T08:19:37;18.42;;;6.55;;
19482;SDS011;9882;51.166;6.992;2022-12-18T08:22:05;15.88;;;6.35;;
19482;SDS011;9882;51.166;6.992;2022-12-18T08:24:34;14.18;;;5.97;;
19482;SDS011;9882;51.166;6.992;2022-12-18T08:27:04;19.15;;;6.85;;
19482;SDS011;9882;51.166;6.992;2022-12-18T08:29:47;21.55;;;7.18;;
19482;SDS011;9882;51.166;6.992;2022-12-18T08:32:15;15.70;;;6.55;;
19482;SDS011;9882;51.166;6.992;2022-12-18T08:34:43;25.70;;;6.47;;
19482;SDS011;9882;51.166;6.992;2022-12-18T08:37:12;15.82;;;6.25;;
19482;SDS011;9882;51.166;6.992;2022-12-18T08:39:41;18.27;;;7.10;;
19482;SDS011;9882;51.166;6.992;2022-12-18T08:42:10;18.08;;;6.90;;
19482;SDS011;9882;51.166;6.992;2022-12-18T08:44:56;18.70;;;6.93;;
19482;SDS011;9882;51.166;6.992;2022-12-18T08:47:25;15.73;;;6.05;;
19482;SDS011;9882;51.166;6.992;2022-12-18T08:49:53;19.40;;;7.38;;
19482;SDS011;9882;51.166;6.992;2022-12-18T08:52:22;17.88;;;7.10;;
19482;SDS011;9882;51.166;6.992;2022-12-18T08:54:50;17.30;;;7.20;;
19482;SDS011;9882;51.166;6.992;2022-12-18T08:57:20;18.20;;;7.13;;
19482;SDS011;9882;51.166;6.992;2022-12-18T08:59:49;17.23;;;7.10;;
19482;SDS011;9882;51.166;6.992;2022-12-18T09:02:17;16.85;;;6.75;;
19482;SDS011;9882;51.166;6.992;2022-12-18T09:04:46;18.80;;;6.40;;
19482;SDS011;9882;51.166;6.992;2022-12-18T09:07:18;14.43;;;6.60;;
19482;SDS011;9882;51.166;6.992;2022-12-18T09:09:46;20.48;;;7.22;;
19482;SDS011;9882;51.166;6.992;2022-12-18T09:12:15;16.08;;;7.00;;
19482;SDS011;9882;51.166;6.992;2022-12-18T09:14:45;18.08;;;7.18;;
19482;SDS011;9882;51.166;6.992;2022-12-18T09:17:13;18.60;;;7.40;;
19482;SDS011;9882;51.166;6.992;2022-12-18T09:19:42;16.85;;;6.05;;
19482;SDS011;9882;51.166;6.992;2022-12-18T09:22:11;20.17;;;7.13;;
19482;SDS011;9882;51.166;6.992;2022-12-18T09:24:39;17.48;;;6.78;;
19482;SDS011;9882;51.166;6.992;2022-12-18T09:27:08;19.73;;;6.35;;
19482;SDS011;9882;51.166;6.992;2022-12-18T09:29:36;16.77;;;6.40;;
19482;SDS011;9882;51.166;6.992;2022-12-18T09:32:06;16.65;;;6.75;;
19482;SDS011;9882;51.166;6.992;2022-12-18T09:34:34;21.52;;;7.40;;
19482;SDS011;9882;51.166;6.992;2022-12-18T09:37:03;16.65;;;6.32;;
19482;SDS011;9882;51.166;6.992;2022-12-18T09:39:31;15.45;;;6.22;;
19482;SDS011;9882;51.166;6.992;2022-12-18T09:42:00;16.80;;;6.95;;
19482;SDS011;9882;51.166;6.992;2022-12-18T09:44:29;16.48;;;6.95;;
19482;SDS011;9882;51.166;6.992;2022-12-18T09:47:03;17.33;;;6.28;;
19482;SDS011;9882;51.166;6.992;2022-12-18T09:49:40;18.15;;;6.80;;
19482;SDS011;9882;51.166;6.992;2022-12-18T09:52:16;14.43;;;6.65;;
19482;SDS011;9882;51.166;6.992;2022-12-18T09:54:48;13.95;;;5.90;;
19482;SDS011;9882;51.166;6.992;2022-12-18T09:57:21;13.80;;;5.55;;
19482;SDS011;9882;51.166;6.992;2022-12-18T09:59:53;22.80;;;7.18;;
19482;SDS011;9882;51.166;6.992;2022-12-18T10:02:26;17.90;;;6.72;;
19482;SDS011;9882;51.166;6.992;2022-12-18T10:05:03;16.60;;;6.55;;
19482;SDS011;9882;51.166;6.992;2022-12-18T10:07:49;16.95;;;6.55;;
19482;SDS011;9882;51.166;6.992;2022-12-18T10:10:26;13.38;;;5.97;;
19482;SDS011;9882;51.166;6.992;2022-12-18T10:13:03;17.08;;;7.07;;
19482;SDS011;9882;51.166;6.992;2022-12-18T10:15:39;15.68;;;6.55;;
19482;SDS011;9882;51.166;6.992;2022-12-18T10:18:22;16.23;;;6.65;;
19482;SDS011;9882;51.166;6.992;2022-12-18T10:21:02;13.15;;;6.28;;
19482;SDS011;9882;51.166;6.992;2022-12-18T10:23:38;17.08;;;6.97;;
19482;SDS011;9882;51.166;6.992;2022-12-18T10:26:14;16.45;;;6.72;;
19482;SDS011;9882;51.166;6.992;2022-12-18T10:28:42;18.90;;;7.25;;
19482;SDS011;9882;51.166;6.992;2022-12-18T10:31:12;14.57;;;6.50;;
19482;SDS011;9882;51.166;6.992;2022-12-18T10:33:45;17.98;;;6.50;;
19482;SDS011;9882;51.166;6.992;2022-12-18T10:36:14;19.95;;;7.55;;
19482;SDS011;9882;51.166;6.992;2022-12-18T10:38:43;16.48;;;6.80;;
19482;SDS011;9882;51.166;6.992;2022-12-18T10:41:23;15.85;;;6.07;;
19482;SDS011;9882;51.166;6.992;2022-12-18T10:44:10;14.27;;;6.55;;
19482;SDS011;9882;51.166;6.992;2022-12-18T10:46:40;19.58;;;7.32;;
19482;SDS011;9882;51.166;6.992;2022-12-18T10:49:19;18.08;;;6.75;;
19482;SDS011;9882;51.166;6.992;2022-12-18T10:51:50;16.67;;;6.55;;
19482;SDS011;9882;51.166;6.992;2022-12-18T10:54:31;15.70;;;6.85;;
19482;SDS011;9882;51.166;6.992;2022-12-18T10:57:13;21.80;;;6.70;;
19482;SDS011;9882;51.166;6.992;2022-12-18T10:59:49;17.67;;;7.45;;
19482;SDS011;9882;51.166;6.992;2022-12-18T11:02:26;17.20;;;6.88;;
19482;SDS011;9882;51.166;6.992;2022-12-18T11:05:02;15.75;;;6.60;;
19482;SDS011;9882;51.166;6.992;2022-12-18T11:07:50;15.65;;;6.95;;
19482;SDS011;9882;51.166;6.992;2022-12-18T11:10:21;15.43;;;6.57;;
19482;SDS011;9882;51.166;6.992;2022-12-18T11:12:51;15.60;;;6.78;;
19482;SDS011;9882;51.166;6.992;2022-12-18T11:15:20;21.98;;;7.28;;
19482;SDS011;9882;51.166;6.992;2022-12-18T11:17:53;16.80;;;6.80;;
19482;SDS011;9882;51.166;6.992;2022-12-18T11:20:31;19.27;;;7.13;;
19482;SDS011;9882;51.166;6.992;2022-12-18T11:23:03;17.92;;;6.68;;
19482;SDS011;9882;51.166;6.992;2022-12-18T11:25:33;18.85;;;7.38;;
19482;SDS011;9882;51.166;6.992;2022-12-18T11:28:02;16.52;;;7.18;;
19482;SDS011;9882;51.166;6.992;2022-12-18T11:30:33;17.23;;;7.18;;
19482;SDS011;9882;51.166;6.992;2022-12-18T11:33:03;18.77;;;6.90;;
19482;SDS011;9882;51.166;6.992;2022-12-18T11:35:47;17.70;;;6.65;;
19482;SDS011;9882;51.166;6.992;2022-12-18T11:38:19;20.20;;;7.40;;
19482;SDS011;9882;51.166;6.992;2022-12-18T11:40:53;20.55;;;7.63;;
19482;SDS011;9882;51.166;6.992;2022-12-18T11:43:26;16.92;;;7.35;;
19482;SDS011;9882;51.166;6.992;2022-12-18T11:45:59;21.35;;;7.53;;
19482;SDS011;9882;51.166;6.992;2022-12-18T11:48:30;18.10;;;7.63;;
19482;SDS011;9882;51.166;6.992;2022-12-18T11:51:04;17.85;;;6.30;;
19482;SDS011;9882;51.166;6.992;2022-12-18T11:53:37;18.27;;;7.35;;
19482;SDS011;9882;51.166;6.992;2022-12-18T11:56:12;20.73;;;8.13;;
19482;SDS011;9882;51.166;6.992;2022-12-18T11:58:57;20.92;;;7.85;;
19482;SDS011;9882;51.166;6.992;2022-12-18T12:01:37;19.30;;;7.55;;
19482;SDS011;9882;51.166;6.992;2022-12-18T12:04:20;23.00;;;8.57;;
19482;SDS011;9882;51.166;6.992;2022-12-18T12:07:13;22.90;;;7.35;;
19482;SDS011;9882;51.166;6.992;2022-12-18T12:10:01;24.98;;;9.02;;
19482;SDS011;9882;51.166;6.992;2022-12-18T12:12:39;21.70;;;7.82;;
19482;SDS011;9882;51.166;6.992;2022-12-18T12:15:25;19.58;;;7.75;;
19482;SDS011;9882;51.166;6.992;2022-12-18T12:18:05;23.17;;;9.15;;
19482;SDS011;9882;51.166;6.992;2022-12-18T12:20:43;22.60;;;8.75;;
19482;SDS011;9882;51.166;6.992;2022-12-18T12:23:22;23.40;;;8.23;;
19482;SDS011;9882;51.166;6.992;2022-12-18T12:25:59;21.05;;;8.68;;
19482;SDS011;9882;51.166;6.992;2022-12-18T12:28:36;26.63;;;7.18;;
19482;SDS011;9882;51.166;6.992;2022-12-18T12:31:22;19.40;;;8.00;;
19482;SDS011;9882;51.166;6.992;2022-12-18T12:34:01;23.98;;;9.23;;
19482;SDS011;9882;51.166;6.992;2022-12-18T12:36:41;22.90;;;8.75;;
19482;SDS011;9882;51.166;6.992;2022-12-18T12:39:20;24.95;;;9.00;;
19482;SDS011;9882;51.166;6.992;2022-12-18T12:41:52;18.75;;;7.65;;
19482;SDS011;9882;51.166;6.992;2022-12-18T12:44:40;23.75;;;9.10;;
19482;SDS011;9882;51.166;6.992;2022-12-18T12:47:14;21.65;;;8.75;;
19482;SDS011;9882;51.166;6.992;2022-12-18T12:49:45;22.15;;;8.68;;
19482;SDS011;9882;51.166;6.992;2022-12-18T12:52:17;21.98;;;9.00;;
19482;SDS011;9882;51.166;6.992;2022-12-18T12:54:54;22.67;;;8.77;;
19482;SDS011;9882;51.166;6.992;2022-12-18T12:57:24;25.75;;;9.75;;
19482;SDS011;9882;51.166;6.992;2022-12-18T13:00:00;28.25;;;9.73;;
19482;SDS011;9882;51.166;6.992;2022-12-18T13:02:34;25.73;;;10.13;;
19482;SDS011;9882;51.166;6.992;2022-12-18T13:05:09;25.60;;;9.57;;
19482;SDS011;9882;51.166;6.992;2022-12-18T13:07:46;26.52;;;10.10;;
19482;SDS011;9882;51.166;6.992;2022-12-18T13:10:35;24.52;;;9.23;;
19482;SDS011;9882;51.166;6.992;2022-12-18T13:13:05;24.40;;;9.45;;
19482;SDS011;9882;51.166;6.992;2022-12-18T13:15:37;24.83;;;9.48;;
19482;SDS011;9882;51.166;6.992;2022-12-18T13:18:11;26.70;;;10.10;;
19482;SDS011;9882;51.166;6.992;2022-12-18T13:20:44;23.67;;;9.48;;
19482;SDS011;9882;51.166;6.992;2022-12-18T13:23:23;24.23;;;10.02;;
19482;SDS011;9882;51.166;6.992;2022-12-18T13:25:57;24.00;;;9.48;;
19482;SDS011;9882;51.166;6.992;2022-12-18T13:28:49;25.17;;;9.57;;
19482;SDS011;9882;51.166;6.992;2022-12-18T13:34:31;34.67;;;11.50;;
19482;SDS011;9882;51.166;6.992;2022-12-18T13:40:02;28.40;;;10.38;;
19482;SDS011;9882;51.166;6.992;2022-12-18T13:43:22;28.45;;;10.55;;
19482;SDS011;9882;51.166;6.992;2022-12-18T13:46:17;23.65;;;9.63;;
19482;SDS011;9882;51.166;6.992;2022-12-18T13:48:49;29.65;;;11.18;;
19482;SDS011;9882;51.166;6.992;2022-12-18T13:51:20;26.95;;;10.48;;
19482;SDS011;9882;51.166;6.992;2022-12-18T13:53:50;27.15;;;10.77;;
19482;SDS011;9882;51.166;6.992;2022-12-18T13:56:23;26.40;;;9.88;;
19482;SDS011;9882;51.166;6.992;2022-12-18T13:59:09;25.45;;;11.00;;
19482;SDS011;9882;51.166;6.992;2022-12-18T14:01:45;29.98;;;11.00;;
19482;SDS011;9882;51.166;6.992;2022-12-18T14:04:20;30.98;;;11.77;;
19482;SDS011;9882;51.166;6.992;2022-12-18T14:06:55;27.40;;;11.18;;
19482;SDS011;9882;51.166;6.992;2022-12-18T14:09:26;35.45;;;11.88;;
19482;SDS011;9882;51.166;6.992;2022-12-18T14:11:57;29.13;;;11.88;;
19482;SDS011;9882;51.166;6.992;2022-12-18T14:14:42;25.08;;;10.90;;
19482;SDS011;9882;51.166;6.992;2022-12-18T14:17:13;32.40;;;11.88;;
19482;SDS011;9882;51.166;6.992;2022-12-18T14:19:43;28.45;;;11.40;;
19482;SDS011;9882;51.166;6.992;2022-12-18T14:22:15;28.58;;;11.93;;
19482;SDS011;9882;51.166;6.992;2022-12-18T14:24:45;31.95;;;12.30;;
19482;SDS011;9882;51.166;6.992;2022-12-18T14:27:20;31.27;;;11.60;;
19482;SDS011;9882;51.166;6.992;2022-12-18T14:29:51;30.90;;;11.95;;
19482;SDS011;9882;51.166;6.992;2022-12-18T14:32:20;35.70;;;12.82;;
19482;SDS011;9882;51.166;6.992;2022-12-18T14:34:49;26.02;;;10.77;;
19482;SDS011;9882;51.166;6.992;2022-12-18T14:37:21;31.52;;;12.95;;
19482;SDS011;9882;51.166;6.992;2022-12-18T14:39:54;25.80;;;10.95;;
19482;SDS011;9882;51.166;6.992;2022-12-18T14:42:30;28.95;;;11.85;;
19482;SDS011;9882;51.166;6.992;2022-12-18T14:48:12;32.53;;;11.93;;
19482;SDS011;9882;51.166;6.992;2022-12-18T14:50:44;34.58;;;12.10;;
19482;SDS011;9882;51.166;6.992;2022-12-18T14:53:22;31.45;;;12.55;;
19482;SDS011;9882;51.166;6.992;2022-12-18T14:55:54;31.70;;;12.50;;
19482;SDS011;9882;51.166;6.992;2022-12-18T14:58:22;24.95;;;10.75;;
19482;SDS011;9882;51.166;6.992;2022-12-18T15:00:52;27.65;;;11.82;;
19482;SDS011;9882;51.166;6.992;2022-12-18T15:03:21;28.20;;;12.20;;
19482;SDS011;9882;51.166;6.992;2022-12-18T15:05:49;31.10;;;12.52;;
19482;SDS011;9882;51.166;6.992;2022-12-18T15:08:27;29.65;;;11.52;;
19482;SDS011;9882;51.166;6.992;2022-12-18T15:11:02;30.42;;;12.02;;
19482;SDS011;9882;51.166;6.992;2022-12-18T15:13:33;32.28;;;12.52;;
19482;SDS011;9882;51.166;6.992;2022-12-18T15:16:03;30.77;;;12.00;;
19482;SDS011;9882;51.166;6.992;2022-12-18T15:18:40;35.65;;;12.48;;
19482;SDS011;9882;51.166;6.992;2022-12-18T15:21:15;25.73;;;11.18;;
19482;SDS011;9882;51.166;6.992;2022-12-18T15:23:46;25.85;;;11.35;;
19482;SDS011;9882;51.166;6.992;2022-12-18T15:26:17;33.13;;;12.13;;
19482;SDS011;9882;51.166;6.992;2022-12-18T15:28:47;32.05;;;12.23;;
19482;SDS011;9882;51.166;6.992;2022-12-18T15:34:09;34.97;;;14.60;;
19482;SDS011;9882;51.166;6.992;2022-12-18T15:36:40;28.50;;;13.68;;